Nasosnyy, Azerbaijan
Current Conditions -  °F | °C
As of 1:30 PM on Friday 31 Oct 2014 (Local Time) from UBBB Reporting Station
Overcast Overcast  
Wind Chill: 61°   Ceiling: 2800
Heat Index: 61°   Visibility: 6mi
Dew Point: 48°   Wind: 9mph
Humidity: 63%   Direction: 200°SSW
Pressure: 30.03"   Gusts: NA
Location:  40.62°N, 49.55°E
Report Text: UBBB 310830Z 20008KT 9999 OVC028 16/09 Q1017 88CLRD70NOSIG
Loading
Personal Weather Stations






























Interactive Weather Map
Tropical Storm Tracking
New forecast layout! Learn more

10-Day Weather Forecast

Advertisements
Track Severe Weather on mobile